Varna, Bulgaria
Current Conditions -  °F | °C
As of 7:30 AM on Monday 26 Jan 2015 (Local Time) from LBWN Reporting Station
Light Rain Light Rain  
Wind Chill: -1°   Ceiling: 4600
Heat Index:   Visibility: 6mi
Dew Point:   Wind: 10mph
Humidity: 100%   Direction: 290°WNW
Pressure: 30.06"   Gusts: NA
Location:  43.21°N, 27.9°E
Report Text: LBWN 260430Z 29009KT 260V330 9999 -RA FEW012 BKN046 03/03 Q1018 R99/29//95 NOSIG
Loading
Personal Weather Stations






























Interactive Weather Map New forecast layout! Learn more

10-Day Weather Forecast

Advertisements
Track Severe Weather on mobile